Time;durP1;ratioP1;P1;durP2;ratioP2;P2;SDS_P1;SDS_P2;PMS_P1;PMS_P2;Temp;Humidity;BMP_temperature;BMP_pressure;BME280_temperature;BME280_humidity;BME280_pressure;Samples;Min_cycle;Max_cycle;Signal;HPM_P1;HPM_P2
2021/05/24 00:00:12;;;;;;;3.67;2.17;;;12.30;91.20;;;;;;5000351;28;20557;-78
2021/05/24 00:02:39;;;;;;;3.40;1.73;;;12.30;91.50;;;;;;4991867;28;20437;-77
2021/05/24 00:05:09;;;;;;;3.80;1.63;;;12.30;91.70;;;;;;4995223;28;20565;-77
2021/05/24 00:07:37;;;;;;;3.93;1.50;;;12.30;91.90;;;;;;4996243;28;20485;-77
2021/05/24 00:10:06;;;;;;;3.17;1.40;;;12.30;92.30;;;;;;5010603;28;20552;-77
2021/05/24 00:12:34;;;;;;;4.00;1.53;;;12.30;92.10;;;;;;5006362;28;20440;-77
2021/05/24 00:15:01;;;;;;;4.40;1.20;;;12.30;92.50;;;;;;4993347;28;20827;-77
2021/05/24 00:17:28;;;;;;;3.23;1.40;;;12.30;92.30;;;;;;5007473;28;20842;-77
2021/05/24 00:19:56;;;;;;;2.60;1.03;;;12.30;92.60;;;;;;5000842;28;20554;-77
2021/05/24 00:22:23;;;;;;;1.80;0.93;;;12.20;92.70;;;;;;4992822;28;20453;-77
2021/05/24 00:24:50;;;;;;;3.00;1.17;;;12.20;92.70;;;;;;4995365;28;20882;-77
2021/05/24 00:27:17;;;;;;;2.33;1.07;;;12.10;92.60;;;;;;5003726;28;20467;-77
2021/05/24 00:29:43;;;;;;;7.93;1.37;;;12.20;92.80;;;;;;5012080;28;20549;-77
2021/05/24 00:32:10;;;;;;;2.90;1.00;;;12.20;92.60;;;;;;5002522;28;20962;-77
2021/05/24 00:34:37;;;;;;;2.10;0.90;;;12.10;92.80;;;;;;4995872;28;21006;-77
2021/05/24 00:37:04;;;;;;;2.00;0.90;;;12.20;92.90;;;;;;5011358;28;20500;-77
2021/05/24 00:39:31;;;;;;;1.40;0.80;;;12.20;93.10;;;;;;5000135;28;20468;-77
2021/05/24 00:41:58;;;;;;;2.53;2.22;;;12.10;93.20;;;;;;4993773;28;20465;-77
2021/05/24 00:44:27;;;;;;;1.60;0.90;;;12.10;93.40;;;;;;4991719;28;20301;-77
2021/05/24 00:46:54;;;;;;;2.90;1.37;;;12.10;93.40;;;;;;5008252;28;20551;-77
2021/05/24 00:49:26;;;;;;;3.80;1.00;;;12.10;93.50;;;;;;5009269;28;20472;-77
2021/05/24 00:51:55;;;;;;;1.50;1.10;;;12.10;93.90;;;;;;4994747;28;20532;-77
2021/05/24 00:54:23;;;;;;;3.97;1.00;;;11.90;94.70;;;;;;4980166;28;20224;-77
2021/05/24 00:56:52;;;;;;;1.85;0.75;;;11.80;95.50;;;;;;4993815;28;20829;-77
2021/05/24 00:59:20;;;;;;;3.88;1.10;;;11.60;96.40;;;;;;5010206;28;20245;-77
2021/05/24 01:01:47;;;;;;;1.58;1.00;;;11.50;97.10;;;;;;5010675;28;20214;-77
2021/05/24 01:04:17;;;;;;;1.75;0.70;;;11.40;98.00;;;;;;4991436;28;20217;-77
2021/05/24 01:06:44;;;;;;;1.98;0.98;;;11.30;98.80;;;;;;4992401;28;20198;-77
2021/05/24 01:09:11;;;;;;;4.28;1.10;;;11.20;99.80;;;;;;5010771;28;20225;-77
2021/05/24 01:11:38;;;;;;;5.03;1.17;;;11.10;99.90;;;;;;4995903;28;20277;-77
2021/05/24 01:14:05;;;;;;;2.70;1.33;;;11.10;99.90;;;;;;4999776;28;20306;-77
2021/05/24 01:16:32;;;;;;;4.15;1.20;;;11.00;99.90;;;;;;5015941;28;20221;-77
2021/05/24 01:18:59;;;;;;;3.35;0.98;;;11.00;99.90;;;;;;5010352;28;20224;-77
2021/05/24 01:21:26;;;;;;;2.90;0.98;;;11.00;99.90;;;;;;5015071;28;20279;-77
2021/05/24 01:23:53;;;;;;;3.35;1.00;;;11.00;99.90;;;;;;5015383;28;20295;-77
2021/05/24 01:26:21;;;;;;;5.43;1.10;;;10.90;99.90;;;;;;5001270;28;20210;-77
2021/05/24 01:28:48;;;;;;;1.90;1.00;;;10.90;99.90;;;;;;5016155;28;20265;-76
2021/05/24 01:31:15;;;;;;;2.17;1.15;;;10.90;99.90;;;;;;4999284;28;20218;-77
2021/05/24 01:33:42;;;;;;;3.85;1.85;;;10.90;99.90;;;;;;5004784;28;20254;-77
2021/05/24 01:36:11;;;;;;;2.40;1.10;;;10.90;99.90;;;;;;5015819;28;20213;-77
2021/05/24 01:38:41;;;;;;;2.47;1.25;;;10.80;99.90;;;;;;4997898;28;20212;-77
2021/05/24 01:41:11;;;;;;;1.70;0.98;;;10.80;99.90;;;;;;5005678;28;20183;-77
2021/05/24 01:43:39;;;;;;;2.05;0.90;;;10.80;99.90;;;;;;5014362;28;20242;-77
2021/05/24 01:46:06;;;;;;;1.67;1.05;;;10.80;99.90;;;;;;5015415;28;20274;-77
2021/05/24 01:48:35;;;;;;;4.55;1.33;;;10.80;99.90;;;;;;4998351;28;20286;-77
2021/05/24 01:51:05;;;;;;;1.23;0.73;;;10.80;99.90;;;;;;5006929;28;20276;-77
2021/05/24 01:53:33;;;;;;;3.25;1.00;;;10.70;99.90;;;;;;4995398;28;20578;-77
2021/05/24 01:56:00;;;;;;;1.60;0.90;;;10.70;99.90;;;;;;5006144;28;20692;-77
2021/05/24 01:58:28;;;;;;;2.70;0.93;;;10.70;99.90;;;;;;5014523;28;20723;-77
2021/05/24 02:01:06;;;;;;;1.63;1.00;;;10.70;99.90;;;;;;5004668;28;20274;-77
2021/05/24 02:03:33;;;;;;;2.33;1.02;;;10.80;99.90;;;;;;4994405;28;20313;-77
2021/05/24 02:06:01;;;;;;;3.90;0.93;;;10.80;99.90;;;;;;5005705;28;20618;-77
2021/05/24 02:08:29;;;;;;;2.25;0.70;;;10.90;99.90;;;;;;5014299;28;20227;-77
2021/05/24 02:10:56;;;;;;;1.30;0.80;;;10.90;99.90;;;;;;4997117;28;20225;-77
2021/05/24 02:13:23;;;;;;;1.48;0.80;;;10.90;99.90;;;;;;4994919;28;20226;-77
2021/05/24 02:15:50;;;;;;;1.55;0.98;;;11.00;99.90;;;;;;5009650;28;20270;-77
2021/05/24 02:18:17;;;;;;;2.08;0.80;;;11.10;99.90;;;;;;5014110;28;20284;-77
2021/05/24 02:20:44;;;;;;;1.50;0.90;;;11.10;99.90;;;;;;5004884;28;20212;-77
2021/05/24 02:23:11;;;;;;;1.10;0.73;;;11.20;99.90;;;;;;4994679;28;20421;-77
2021/05/24 02:25:38;;;;;;;1.40;0.73;;;11.20;99.90;;;;;;5005011;28;20192;-77
2021/05/24 02:28:06;;;;;;;1.75;0.80;;;11.20;99.90;;;;;;5012143;28;20210;-77
2021/05/24 02:30:34;;;;;;;1.20;0.65;;;11.20;99.90;;;;;;5014090;28;20194;-77
2021/05/24 02:33:02;;;;;;;2.00;1.00;;;11.20;99.90;;;;;;4996826;28;20222;-77
2021/05/24 02:35:30;;;;;;;2.05;1.17;;;11.20;99.90;;;;;;4994270;28;20603;-77
2021/05/24 02:37:57;;;;;;;4.50;2.55;;;11.20;99.90;;;;;;5009252;28;20213;-77
2021/05/24 02:40:27;;;;;;;1.88;0.90;;;11.20;99.90;;;;;;4995792;28;20212;-77
2021/05/24 02:42:55;;;;;;;1.00;0.80;;;11.10;99.90;;;;;;5008559;28;20189;-77
2021/05/24 02:45:22;;;;;;;1.17;0.82;;;11.20;99.90;;;;;;5013824;28;20301;-77
2021/05/24 02:47:50;;;;;;;1.80;0.90;;;11.20;99.90;;;;;;4999223;28;20208;-77
2021/05/24 02:50:21;;;;;;;4.30;0.90;;;11.20;99.90;;;;;;4994642;28;20226;-77
2021/05/24 02:52:48;;;;;;;1.85;0.82;;;11.20;99.90;;;;;;5007832;28;20223;-77
2021/05/24 02:55:16;;;;;;;3.97;1.00;;;11.10;99.90;;;;;;5009138;28;20220;-76
2021/05/24 02:57:43;;;;;;;1.70;0.80;;;11.20;99.90;;;;;;5015337;28;20285;-77
2021/05/24 03:00:11;;;;;;;2.15;1.08;;;11.20;99.90;;;;;;5011504;28;20223;-77
2021/05/24 03:02:44;;;;;;;2.60;0.80;;;11.20;99.90;;;;;;4993217;28;20215;-77
2021/05/24 03:05:17;;;;;;;2.50;0.90;;;11.20;99.90;;;;;;4996346;28;20228;-77
2021/05/24 03:07:44;;;;;;;1.27;0.75;;;11.20;99.90;;;;;;4994117;28;20212;-77
2021/05/24 03:10:13;;;;;;;2.58;0.70;;;11.30;99.90;;;;;;5001896;28;20299;-77
2021/05/24 03:12:40;;;;;;;4.07;1.02;;;11.30;99.90;;;;;;4994897;28;20553;-77
2021/05/24 03:15:08;;;;;;;4.28;1.15;;;11.30;99.90;;;;;;5008836;28;20217;-77
2021/05/24 03:17:36;;;;;;;2.53;1.20;;;11.30;99.90;;;;;;5011229;28;20774;-77
2021/05/24 03:20:05;;;;;;;2.50;0.90;;;11.40;99.90;;;;;;4974197;28;20220;-77
2021/05/24 03:22:31;;;;;;;2.25;1.45;;;11.40;99.90;;;;;;4985853;28;20651;-77
2021/05/24 03:24:59;;;;;;;1.95;1.40;;;11.40;99.90;;;;;;5018456;28;20247;-77
2021/05/24 03:27:26;;;;;;;2.67;1.30;;;11.40;99.90;;;;;;4998427;28;20306;-77
2021/05/24 03:29:54;;;;;;;1.60;1.40;;;11.30;99.90;;;;;;5011213;28;20231;-77
2021/05/24 03:32:21;;;;;;;3.40;1.20;;;11.30;99.90;;;;;;5010301;28;20240;-77
2021/05/24 03:34:48;;;;;;;3.72;0.80;;;11.30;99.90;;;;;;5010921;28;20216;-77
2021/05/24 03:37:15;;;;;;;2.25;1.02;;;11.30;99.90;;;;;;4981414;28;20223;-77
2021/05/24 03:39:42;;;;;;;2.75;1.00;;;11.30;99.90;;;;;;5010017;28;20649;-77
2021/05/24 03:42:09;;;;;;;1.75;1.02;;;11.30;99.90;;;;;;5012391;28;20273;-77
2021/05/24 03:44:42;;;;;;;1.65;1.08;;;11.30;99.90;;;;;;5027509;28;20699;-77
2021/05/24 03:47:13;;;;;;;2.55;0.93;;;11.30;99.90;;;;;;5000958;28;20208;-77
2021/05/24 03:49:45;;;;;;;3.55;1.20;;;11.30;99.90;;;;;;4977722;28;20717;-77
2021/05/24 03:52:14;;;;;;;3.08;0.95;;;11.40;99.90;;;;;;4992967;28;20195;-77
2021/05/24 03:54:43;;;;;;;1.95;1.00;;;11.40;99.90;;;;;;4993782;28;20235;-78
2021/05/24 03:57:11;;;;;;;2.47;0.93;;;11.30;99.90;;;;;;5012071;28;20210;-77
2021/05/24 03:59:39;;;;;;;5.55;1.58;;;11.30;99.90;;;;;;4997313;28;20219;-77
2021/05/24 04:02:06;;;;;;;1.90;1.13;;;11.30;99.90;;;;;;5008443;28;20669;-77
2021/05/24 04:04:33;;;;;;;3.65;1.48;;;11.30;99.90;;;;;;5007459;28;20239;-77
2021/05/24 04:07:04;;;;;;;2.63;1.52;;;11.30;99.90;;;;;;4973529;28;20211;-77
2021/05/24 04:09:32;;;;;;;1.33;1.23;;;11.20;99.90;;;;;;4997341;28;20227;-77
2021/05/24 04:11:59;;;;;;;2.22;0.80;;;11.10;99.90;;;;;;5012829;28;20195;-77
2021/05/24 04:14:26;;;;;;;2.22;0.90;;;11.10;99.90;;;;;;5010096;28;20697;-77
2021/05/24 04:16:54;;;;;;;2.42;1.20;;;11.10;99.90;;;;;;5019715;28;20214;-77
2021/05/24 04:19:22;;;;;;;3.95;2.22;;;11.00;99.90;;;;;;5019067;28;20244;-77
2021/05/24 04:21:49;;;;;;;1.50;0.90;;;11.00;99.90;;;;;;5013936;28;20198;-76
2021/05/24 04:24:16;;;;;;;2.28;1.10;;;10.90;99.90;;;;;;5011345;28;20806;-77
2021/05/24 04:26:43;;;;;;;1.73;1.00;;;10.90;99.90;;;;;;4999012;28;20699;-77
2021/05/24 04:29:10;;;;;;;3.90;1.17;;;10.90;99.90;;;;;;5010810;28;20254;-77
2021/05/24 04:31:37;;;;;;;2.35;1.17;;;10.80;99.90;;;;;;4997959;28;20312;-77
2021/05/24 04:34:05;;;;;;;3.08;1.10;;;10.80;99.90;;;;;;4992347;28;20744;-77
2021/05/24 04:36:34;;;;;;;1.95;1.30;;;10.80;99.90;;;;;;5005052;28;20206;-76
2021/05/24 04:39:01;;;;;;;4.47;1.52;;;10.80;99.90;;;;;;5000225;28;20211;-77
2021/05/24 04:41:28;;;;;;;1.58;1.25;;;10.80;99.90;;;;;;4991693;28;20233;-77
2021/05/24 04:43:57;;;;;;;1.45;1.10;;;10.70;99.90;;;;;;4990955;28;20253;-77
2021/05/24 04:46:24;;;;;;;1.85;1.08;;;10.70;99.90;;;;;;5012201;28;20174;-78
2021/05/24 04:48:54;;;;;;;2.80;1.27;;;10.70;99.90;;;;;;5009586;28;20214;-77
2021/05/24 04:51:24;;;;;;;3.17;1.48;;;10.80;99.90;;;;;;4958099;28;20189;-77
2021/05/24 04:53:51;;;;;;;3.35;1.52;;;10.80;99.90;;;;;;4987487;28;20270;-77
2021/05/24 04:56:18;;;;;;;2.88;0.80;;;10.90;99.90;;;;;;5005718;28;20194;-76
2021/05/24 04:58:46;;;;;;;3.38;1.10;;;11.00;99.90;;;;;;4986399;28;20229;-77
2021/05/24 05:01:13;;;;;;;2.33;1.20;;;11.10;99.90;;;;;;5012008;28;20185;-77
2021/05/24 05:03:40;;;;;;;1.30;1.13;;;11.10;99.90;;;;;;4992524;28;20589;-77
2021/05/24 05:06:07;;;;;;;2.33;0.85;;;11.20;99.90;;;;;;4992392;28;20589;-77
2021/05/24 05:08:35;;;;;;;2.03;1.08;;;11.20;99.90;;;;;;5007361;28;20309;-77
2021/05/24 05:11:02;;;;;;;1.80;1.48;;;11.20;99.90;;;;;;4978532;28;20282;-77
2021/05/24 05:13:29;;;;;;;1.58;1.10;;;11.30;99.90;;;;;;5009811;28;20226;-77
2021/05/24 05:15:56;;;;;;;3.72;1.45;;;11.40;99.90;;;;;;5010503;28;20186;-77
2021/05/24 05:18:23;;;;;;;3.33;1.45;;;11.60;99.90;;;;;;4989487;28;20724;-77
2021/05/24 05:20:50;;;;;;;2.60;1.20;;;11.60;99.90;;;;;;4991300;28;20547;-77
2021/05/24 05:23:17;;;;;;;2.20;1.10;;;11.80;99.90;;;;;;5010537;28;20660;-77
2021/05/24 05:25:44;;;;;;;2.42;0.93;;;11.90;99.90;;;;;;5009460;28;20743;-77
2021/05/24 05:28:11;;;;;;;2.70;1.45;;;12.00;99.60;;;;;;4997191;28;20208;-77
2021/05/24 05:30:41;;;;;;;3.55;1.08;;;12.10;99.40;;;;;;4999990;28;20186;-77
2021/05/24 05:33:08;;;;;;;1.90;1.27;;;12.20;98.80;;;;;;5009396;28;20188;-77
2021/05/24 05:35:35;;;;;;;1.98;1.13;;;12.40;98.40;;;;;;4996597;28;20182;-77
2021/05/24 05:38:02;;;;;;;1.93;1.17;;;12.40;97.70;;;;;;5009347;28;20206;-77
2021/05/24 05:40:31;;;;;;;3.47;1.17;;;12.50;97.40;;;;;;5004425;28;20450;-77
2021/05/24 05:42:58;;;;;;;2.40;0.93;;;12.50;96.80;;;;;;5011723;28;20201;-78
2021/05/24 05:45:26;;;;;;;2.13;1.17;;;12.60;96.60;;;;;;4993191;28;20218;-77
2021/05/24 05:47:53;;;;;;;14.20;2.20;;;12.70;96.50;;;;;;4996914;28;20207;-77
2021/05/24 05:50:20;;;;;;;4.55;1.10;;;12.80;96.10;;;;;;4995945;28;20456;-77
2021/05/24 05:52:47;;;;;;;2.27;1.00;;;12.90;95.70;;;;;;5004619;28;20723;-77
2021/05/24 05:55:18;;;;;;;2.90;1.30;;;13.00;95.40;;;;;;4989937;28;20521;-77
2021/05/24 05:57:45;;;;;;;3.97;1.50;;;13.40;94.40;;;;;;5010550;28;20886;-77
2021/05/24 06:00:12;;;;;;;2.37;1.30;;;13.90;92.80;;;;;;4994308;28;20450;-77
2021/05/24 06:02:40;;;;;;;3.07;1.43;;;14.20;91.30;;;;;;4998306;28;20536;-77
2021/05/24 06:05:14;;;;;;;2.67;1.20;;;14.70;90.00;;;;;;5021212;28;20470;-77
2021/05/24 06:07:42;;;;;;;1.97;1.33;;;15.00;88.20;;;;;;4997039;28;20895;-77
2021/05/24 06:10:10;;;;;;;2.73;1.93;;;15.20;88.00;;;;;;4977331;28;20562;-77
2021/05/24 06:12:38;;;;;;;2.57;1.03;;;15.30;85.20;;;;;;4979663;28;20432;-77
2021/05/24 06:15:09;;;;;;;2.30;1.07;;;15.50;84.40;;;;;;5012434;28;20474;-77
2021/05/24 06:17:36;;;;;;;2.40;0.90;;;15.70;82.80;;;;;;5028954;28;20827;-77
2021/05/24 06:20:05;;;;;;;1.70;1.00;;;15.80;81.70;;;;;;5002464;28;21011;-77
2021/05/24 06:22:32;;;;;;;2.40;1.10;;;15.80;81.00;;;;;;5007103;28;20963;-78
2021/05/24 06:24:58;;;;;;;2.33;0.83;;;16.00;80.40;;;;;;4995749;28;20469;-77
2021/05/24 06:27:25;;;;;;;2.90;0.70;;;16.10;80.70;;;;;;4974196;28;20543;-77
2021/05/24 06:29:53;;;;;;;4.80;1.00;;;16.10;80.40;;;;;;4986095;28;20471;-77
2021/05/24 06:32:19;;;;;;;3.17;1.00;;;16.10;83.30;;;;;;4995113;28;20475;-77
2021/05/24 06:34:46;;;;;;;1.13;0.67;;;16.10;80.70;;;;;;5002008;28;20513;-78
2021/05/24 06:37:13;;;;;;;3.20;2.00;;;16.10;80.30;;;;;;5012239;28;20892;-78
2021/05/24 06:39:41;;;;;;;2.60;1.60;;;16.10;80.10;;;;;;5008696;28;20937;-77
2021/05/24 06:42:08;;;;;;;2.27;0.90;;;16.10;77.90;;;;;;4994763;28;20926;-78
2021/05/24 06:44:35;;;;;;;3.80;0.80;;;16.20;77.40;;;;;;4992960;28;20464;-78
2021/05/24 06:47:05;;;;;;;3.20;1.10;;;16.30;74.10;;;;;;5003549;28;20455;-77
2021/05/24 06:49:34;;;;;;;2.30;1.23;;;16.40;75.70;;;;;;5000483;28;20473;-78
2021/05/24 06:52:05;;;;;;;1.30;1.00;;;16.40;75.80;;;;;;5012753;28;20440;-77
2021/05/24 06:54:32;;;;;;;5.83;1.17;;;16.50;74.40;;;;;;4999816;28;21004;-77
2021/05/24 06:57:06;;;;;;;2.70;1.20;;;16.50;74.60;;;;;;4991701;28;20457;-78
2021/05/24 06:59:35;;;;;;;3.60;1.30;;;16.60;73.40;;;;;;4992723;28;20524;-78
2021/05/24 07:02:03;;;;;;;2.40;0.87;;;16.80;75.10;;;;;;4994840;28;20440;-77
2021/05/24 07:04:30;;;;;;;3.60;1.30;;;16.80;76.80;;;;;;5015312;28;20475;-77
2021/05/24 07:06:57;;;;;;;3.30;1.30;;;16.90;73.80;;;;;;5016319;28;20458;-77
2021/05/24 07:09:24;;;;;;;4.90;1.70;;;16.90;73.00;;;;;;5010044;28;20456;-77
2021/05/24 07:11:53;;;;;;;1.80;0.80;;;17.00;71.50;;;;;;5002361;28;20440;-77
2021/05/24 07:14:20;;;;;;;1.77;1.03;;;17.20;72.50;;;;;;5005873;28;21002;-77
2021/05/24 07:16:47;;;;;;;4.87;1.53;;;17.20;71.80;;;;;;5015366;28;20451;-78
2021/05/24 07:19:14;;;;;;;2.27;0.70;;;17.10;71.70;;;;;;5009075;28;20857;-78
2021/05/24 07:21:41;;;;;;;1.30;0.90;;;17.10;70.40;;;;;;5012962;28;21007;-77
2021/05/24 07:24:08;;;;;;;2.03;1.13;;;16.90;71.70;;;;;;5013813;28;20875;-77
2021/05/24 07:26:54;;;;;;;2.60;1.00;;;16.80;71.00;;;;;;5009470;28;20978;-77
2021/05/24 07:29:21;;;;;;;3.70;1.80;;;16.60;68.80;;;;;;4991911;28;20462;-78
2021/05/24 07:31:48;;;;;;;3.33;1.17;;;16.50;69.70;;;;;;5002284;28;20441;-77
2021/05/24 07:34:15;;;;;;;2.30;1.40;;;16.50;72.20;;;;;;5009318;28;20884;-78
2021/05/24 07:36:46;;;;;;;1.33;0.60;;;16.50;69.50;;;;;;4974693;28;20493;-77
2021/05/24 07:39:13;;;;;;;2.40;1.00;;;16.30;69.80;;;;;;4993754;28;20533;-78
2021/05/24 07:41:40;;;;;;;2.13;0.73;;;16.20;68.40;;;;;;5010432;28;20975;-77
2021/05/24 07:44:08;;;;;;;3.90;1.10;;;16.20;69.50;;;;;;5011375;28;20483;-77
2021/05/24 07:46:39;;;;;;;3.63;0.90;;;16.20;69.50;;;;;;4997345;28;20456;-78
2021/05/24 07:49:07;;;;;;;1.90;1.17;;;16.10;68.30;;;;;;5010466;28;20455;-78
2021/05/24 07:51:34;;;;;;;2.00;1.20;;;16.20;70.00;;;;;;5006491;28;20952;-78
2021/05/24 07:54:02;;;;;;;2.83;1.00;;;16.10;70.00;;;;;;4997064;28;20591;-77
2021/05/24 07:56:32;;;;;;;3.43;1.40;;;16.10;70.80;;;;;;4991773;28;20436;-78
2021/05/24 07:58:59;;;;;;;3.53;0.80;;;16.10;71.20;;;;;;4992812;28;20596;-77
2021/05/24 08:01:26;;;;;;;4.00;1.10;;;16.00;70.80;;;;;;5005961;28;20440;-77
2021/05/24 08:03:53;;;;;;;3.23;1.63;;;16.00;71.70;;;;;;5011307;28;20547;-78
2021/05/24 08:06:20;;;;;;;2.03;1.10;;;16.00;71.30;;;;;;5005559;28;20458;-78
2021/05/24 08:08:47;;;;;;;5.53;1.50;;;16.00;71.30;;;;;;5011929;28;20473;-77
2021/05/24 08:11:15;;;;;;;5.50;1.27;;;15.90;71.00;;;;;;5011625;28;20454;-77
2021/05/24 08:13:43;;;;;;;3.50;1.60;;;15.90;70.80;;;;;;4992651;28;20490;-77
2021/05/24 08:16:13;;;;;;;4.90;1.47;;;15.90;71.30;;;;;;4988820;28;20447;-77
2021/05/24 08:18:41;;;;;;;3.20;1.13;;;15.90;71.90;;;;;;4990332;28;20482;-78
2021/05/24 08:21:09;;;;;;;6.27;1.53;;;15.80;72.30;;;;;;5007839;28;20426;-77
2021/05/24 08:23:43;;;;;;;3.07;1.30;;;15.80;72.70;;;;;;4992532;28;20484;-78
2021/05/24 08:26:11;;;;;;;5.23;1.20;;;15.80;71.60;;;;;;5003988;28;21017;-77
2021/05/24 08:28:38;;;;;;;3.97;1.27;;;15.80;72.00;;;;;;5003460;28;20476;-78
2021/05/24 08:31:06;;;;;;;2.40;1.27;;;15.70;71.50;;;;;;5008001;28;20459;-77
2021/05/24 08:33:33;;;;;;;2.90;0.90;;;15.70;71.40;;;;;;5021335;28;20454;-78
2021/05/24 08:36:01;;;;;;;3.70;1.13;;;15.60;69.50;;;;;;4992527;28;20506;-77
2021/05/24 08:38:28;;;;;;;2.60;1.57;;;15.60;69.10;;;;;;4989144;28;20870;-77
2021/05/24 08:40:56;;;;;;;7.00;1.33;;;15.60;68.90;;;;;;5013888;28;20458;-78
2021/05/24 08:43:24;;;;;;;3.47;1.13;;;15.60;68.90;;;;;;5002312;28;20459;-77
2021/05/24 08:45:51;;;;;;;5.47;1.50;;;15.50;69.80;;;;;;4994491;28;20801;-77
2021/05/24 08:48:19;;;;;;;2.20;1.43;;;15.50;70.50;;;;;;5014189;28;20466;-78
2021/05/24 08:50:46;;;;;;;3.03;1.20;;;15.50;70.00;;;;;;4990733;28;20455;-78
2021/05/24 08:53:13;;;;;;;1.83;0.90;;;15.50;68.90;;;;;;4999575;28;20430;-78
2021/05/24 08:55:40;;;;;;;2.10;1.10;;;15.50;69.50;;;;;;4988504;28;20449;-78
2021/05/24 08:58:09;;;;;;;2.97;1.40;;;15.40;69.70;;;;;;5022893;28;20497;-78
2021/05/24 09:00:42;;;;;;;2.60;0.83;;;15.40;70.30;;;;;;4996539;28;20434;-78
2021/05/24 09:03:18;;;;;;;4.10;1.60;;;15.40;69.70;;;;;;5005847;28;20957;-78
2021/05/24 09:05:46;;;;;;;3.67;2.07;;;15.40;70.20;;;;;;4972070;28;20435;-78
2021/05/24 09:08:13;;;;;;;2.70;2.00;;;15.40;69.60;;;;;;4985582;28;20458;-78
2021/05/24 09:10:43;;;;;;;1.87;1.20;;;15.40;70.00;;;;;;5001885;28;20478;-77
2021/05/24 09:13:16;;;;;;;3.20;1.77;;;15.40;68.40;;;;;;5027299;28;20530;-77
2021/05/24 09:15:47;;;;;;;2.07;1.30;;;15.40;68.70;;;;;;5014229;28;20840;-78
2021/05/24 09:18:18;;;;;;;4.47;1.73;;;15.40;69.20;;;;;;4989455;28;20524;-77
2021/05/24 09:20:50;;;;;;;3.10;1.00;;;15.40;69.20;;;;;;4987810;28;20444;-78
2021/05/24 09:23:17;;;;;;;4.87;1.50;;;15.40;67.90;;;;;;4972487;28;20478;-77
2021/05/24 09:25:54;;;;;;;2.90;1.37;;;15.40;68.00;;;;;;5017472;28;21018;-78
2021/05/24 09:28:37;;;;;;;2.90;1.23;;;15.50;69.10;;;;;;5009500;28;20473;-77
2021/05/24 09:31:16;;;;;;;6.20;1.50;;;15.60;67.30;;;;;;4991548;28;20471;-78
2021/05/24 09:33:48;;;;;;;2.53;0.97;;;15.60;66.30;;;;;;4981996;28;20471;-77
2021/05/24 09:36:16;;;;;;;1.40;0.90;;;15.60;66.10;;;;;;5005424;28;20451;-77
2021/05/24 09:38:48;;;;;;;2.83;1.40;;;15.60;65.60;;;;;;4993220;28;20466;-77
2021/05/24 09:41:19;;;;;;;1.83;1.30;;;15.60;65.50;;;;;;5010719;28;20445;-77
2021/05/24 09:43:52;;;;;;;2.30;1.37;;;15.70;65.40;;;;;;5013451;28;20561;-77
2021/05/24 09:46:29;;;;;;;1.67;1.00;;;15.70;64.60;;;;;;5015548;28;20431;-78
2021/05/24 09:49:02;;;;;;;1.40;1.20;;;15.70;65.40;;;;;;5013231;28;20485;-78
2021/05/24 09:51:33;;;;;;;3.70;2.00;;;15.60;65.80;;;;;;5014396;28;20432;-78
2021/05/24 09:54:09;;;;;;;3.97;1.80;;;15.60;65.10;;;;;;4998846;28;20471;-78
2021/05/24 09:56:42;;;;;;;2.40;1.43;;;15.60;65.60;;;;;;4995125;28;20588;-78
2021/05/24 09:59:13;;;;;;;1.20;1.10;;;15.60;66.70;;;;;;5016486;28;20856;-78
2021/05/24 10:01:47;;;;;;;1.97;1.63;;;15.60;66.00;;;;;;5010701;28;20440;-77
2021/05/24 10:04:20;;;;;;;2.10;1.00;;;15.60;66.70;;;;;;4997423;28;20546;-78
2021/05/24 10:06:48;;;;;;;9.30;1.60;;;15.60;65.70;;;;;;4994344;28;20460;-78
2021/05/24 10:09:17;;;;;;;3.87;1.20;;;15.70;66.80;;;;;;4993359;28;20465;-78
2021/05/24 10:11:52;;;;;;;1.70;1.07;;;15.70;67.20;;;;;;4991720;28;20460;-78
2021/05/24 10:14:24;;;;;;;1.67;1.20;;;15.70;66.80;;;;;;4975583;28;20470;-78
2021/05/24 10:16:57;;;;;;;1.07;0.63;;;15.80;66.10;;;;;;5007918;28;20467;-77
2021/05/24 10:19:26;;;;;;;1.57;0.80;;;15.90;67.50;;;;;;4984127;28;20859;-78
2021/05/24 10:21:53;;;;;;;2.60;1.10;;;15.90;67.30;;;;;;5013025;28;20433;-78
2021/05/24 10:24:23;;;;;;;3.53;1.23;;;16.00;67.60;;;;;;5013447;28;20495;-78
2021/05/24 10:26:59;;;;;;;3.40;0.83;;;16.00;68.50;;;;;;5010147;28;20465;-77
2021/05/24 10:29:29;;;;;;;1.70;1.03;;;16.10;68.20;;;;;;4994528;28;20464;-78
2021/05/24 10:31:56;;;;;;;2.07;1.20;;;16.10;68.40;;;;;;4987035;28;21643;-77
2021/05/24 10:34:24;;;;;;;1.60;0.93;;;16.10;67.70;;;;;;5013952;28;20467;-78
2021/05/24 10:37:21;;;;;;;2.20;1.10;;;16.10;68.30;;;;;;4990120;28;21012;-78
2021/05/24 10:40:02;;;;;;;3.37;0.93;;;16.00;68.80;;;;;;4991014;28;20555;-77
2021/05/24 10:42:44;;;;;;;1.30;0.70;;;16.00;70.00;;;;;;4996689;28;20447;-77
2021/05/24 10:45:16;;;;;;;0.93;0.47;;;16.00;70.20;;;;;;4993303;28;20800;-77
2021/05/24 10:47:55;;;;;;;1.10;0.60;;;16.00;72.70;;;;;;4996033;28;20455;-77
2021/05/24 10:50:25;;;;;;;1.33;0.93;;;15.90;73.10;;;;;;4994396;28;20466;-78
2021/05/24 10:52:59;;;;;;;1.60;0.80;;;15.80;74.10;;;;;;4994042;28;20489;-77
2021/05/24 10:55:28;;;;;;;1.30;0.90;;;15.80;76.60;;;;;;4983994;28;20471;-77
2021/05/24 10:58:09;;;;;;;1.37;1.17;;;15.80;78.60;;;;;;4973711;28;20470;-78
2021/05/24 11:01:03;;;;;;;1.43;0.97;;;15.70;76.80;;;;;;4957618;28;20507;-75
2021/05/24 11:03:32;;;;;;;2.87;0.90;;;15.60;75.80;;;;;;4989547;28;20472;-78
2021/05/24 11:06:22;;;;;;;1.87;0.90;;;15.60;75.60;;;;;;4991130;28;20481;-77
2021/05/24 11:08:59;;;;;;;1.17;0.63;;;15.50;76.40;;;;;;4992512;28;20495;-78
2021/05/24 11:11:29;;;;;;;2.30;0.50;;;15.40;77.40;;;;;;4975948;28;20451;-78
2021/05/24 11:14:01;;;;;;;1.40;0.80;;;15.40;78.20;;;;;;4988805;28;20523;-78
2021/05/24 11:16:29;;;;;;;2.00;0.83;;;15.40;78.00;;;;;;4976077;28;20423;-78
2021/05/24 11:19:13;;;;;;;1.63;1.27;;;15.40;78.70;;;;;;4999667;28;20505;-78
2021/05/24 11:21:56;;;;;;;2.50;0.67;;;15.40;79.80;;;;;;5010893;28;20425;-77
2021/05/24 11:27:10;;;;;;;2.00;1.20;;;15.40;83.40;;;;;;4997219;28;20512;-78
2021/05/24 11:29:43;;;;;;;1.90;0.70;;;15.40;83.70;;;;;;5000840;28;21069;-78
2021/05/24 11:32:27;;;;;;;3.10;1.60;;;15.40;85.60;;;;;;4998976;28;20440;-78
2021/05/24 11:34:56;;;;;;;1.20;0.53;;;15.30;87.20;;;;;;5001265;28;20467;-77
2021/05/24 11:37:53;;;;;;;1.57;0.70;;;15.20;87.70;;;;;;5004799;28;20469;-77
2021/05/24 11:40:25;;;;;;;3.83;1.90;;;15.10;90.00;;;;;;4984235;28;20570;-77
2021/05/24 11:43:11;;;;;;;2.27;0.93;;;15.10;91.20;;;;;;4973094;28;20447;-78
2021/05/24 11:45:38;;;;;;;3.13;2.00;;;15.20;90.80;;;;;;5006037;28;20470;-77
2021/05/24 11:48:07;;;;;;;2.13;0.93;;;15.20;90.40;;;;;;4990087;28;20803;-77
2021/05/24 11:50:35;;;;;;;2.20;1.50;;;15.20;90.40;;;;;;5006290;28;20455;-77
2021/05/24 11:53:02;;;;;;;1.80;1.00;;;15.30;90.50;;;;;;4991886;28;20442;-78
2021/05/24 11:55:33;;;;;;;1.80;1.03;;;15.30;89.90;;;;;;4972904;28;20444;-78
2021/05/24 11:58:09;;;;;;;3.30;1.20;;;15.40;87.80;;;;;;4993287;28;20541;-77
2021/05/24 12:00:43;;;;;;;1.10;0.57;;;15.40;86.00;;;;;;4973778;28;20435;-78
2021/05/24 12:03:10;;;;;;;1.77;0.83;;;15.40;87.20;;;;;;4974794;28;20422;-78
2021/05/24 12:05:47;;;;;;;1.00;0.40;;;15.40;88.60;;;;;;5012062;28;20426;-78
2021/05/24 12:08:19;;;;;;;1.30;0.67;;;15.40;88.50;;;;;;5001749;28;20882;-77
2021/05/24 12:10:57;;;;;;;1.67;0.80;;;15.40;87.10;;;;;;4980145;28;20447;-78
2021/05/24 12:13:24;;;;;;;1.60;0.80;;;15.30;85.60;;;;;;4999693;28;20512;-78
2021/05/24 12:16:02;;;;;;;1.37;0.57;;;15.30;84.30;;;;;;4991990;28;20466;-77
2021/05/24 12:18:30;;;;;;;1.10;0.47;;;15.20;83.80;;;;;;4985601;28;21056;-78
2021/05/24 12:21:02;;;;;;;1.10;0.43;;;15.10;84.40;;;;;;4975432;28;20447;-77
2021/05/24 12:23:29;;;;;;;1.10;0.50;;;15.10;85.20;;;;;;4987769;28;20464;-77
2021/05/24 12:26:15;;;;;;;1.40;0.60;;;15.10;85.00;;;;;;4994167;28;20468;-77
2021/05/24 12:28:50;;;;;;;1.10;0.40;;;15.20;84.50;;;;;;4955941;28;20980;-78
2021/05/24 12:31:23;;;;;;;1.20;0.40;;;15.10;82.80;;;;;;4989884;28;20546;-78
2021/05/24 12:33:57;;;;;;;1.00;0.60;;;15.10;83.80;;;;;;4991148;28;20844;-78
2021/05/24 12:36:32;;;;;;;1.47;0.90;;;15.30;81.90;;;;;;5009499;28;20453;-79
2021/05/24 12:39:04;;;;;;;1.20;0.80;;;15.30;82.00;;;;;;4984358;28;20480;-78
2021/05/24 12:41:32;;;;;;;1.27;0.67;;;15.40;80.30;;;;;;5008902;28;20456;-78
2021/05/24 12:44:02;;;;;;;0.93;0.50;;;15.40;79.90;;;;;;5022770;22;20480;-81
2021/05/24 12:46:38;;;;;;;1.77;0.60;;;15.50;80.10;;;;;;4979418;28;20536;-83
2021/05/24 12:49:04;;;;;;;3.03;0.60;;;15.50;80.40;;;;;;4985544;28;20550;-84
2021/05/24 12:51:34;;;;;;;1.60;0.93;;;15.50;81.00;;;;;;4973726;28;20444;-83
2021/05/24 12:54:09;;;;;;;2.00;0.70;;;15.40;82.30;;;;;;4955699;28;20458;-81
2021/05/24 12:56:41;;;;;;;0.97;0.50;;;15.50;80.00;;;;;;4959523;28;20470;-83
2021/05/24 12:59:20;;;;;;;1.20;0.70;;;15.50;79.10;;;;;;4976421;28;20466;-83
2021/05/24 13:01:53;;;;;;;3.67;2.30;;;15.50;78.10;;;;;;4979410;28;20447;-82